Bo Calzada, Puerto Rico
Current Conditions -  °F | °C
As of 10:50 AM on Thursday 25 Dec 2014 (Local Time) from TJBQ Reporting Station
Broken Clouds Broken Clouds  
Wind Chill: 81°   Ceiling: 3000
Heat Index: 84°   Visibility: 10mi
Dew Point: 70°   Wind: 14mph
Humidity: 70%   Direction: 100°E
Pressure: 30.13"   Gusts: 17mph
Location:  18.1144°N, 66.8568°W
Report Text: TJBQ 251450Z 10012G15KT 10SM SCT020 BKN030 27/21 A3013 RMK RWY08 ATIS T
Loading
Personal Weather Stations






























Interactive Weather Map New forecast layout! Learn more

10-Day Weather Forecast

Advertisements
Track Severe Weather on mobile